Flight Track Log - Related Links

Times and Time Zones

All times are in EST time to prevent confusion due to time zone crossing. See the FLG3306 flight status page for this flight to view local times or setup timezone preferences in your user account.

Time Position Orientation Groundspeed Altitude Reporting Facility
EST Latitude Longitude Course Direction KTS MPH feet Rate Location/Type
Fri 07:22:10 AM 39.2833 -94.7000 270° West 147 169 1,700  Level Kansas City TRACON
Fri 07:22:22 AM 39.2833 -94.7167 270° West 146 168 2,100 1,667 Climbing Kansas City TRACON
Fri 07:23:22 AM 39.2333 -94.7167 180° South 191 220 3,700 2,110 Climbing Kansas City TRACON
Fri 07:24:47 AM 39.1381 -94.7058 175° South 244 281 7,200 2,425 Climbing Kansas City Center
Fri 07:25:48 AM 39.0644 -94.6864 168° South 279 321 9,600 2,262 Climbing Kansas City Center
Fri 07:26:49 AM 38.9681 -94.6619 169° South 315 362 11,800 2,281 Climbing Kansas City Center
Fri 07:27:49 AM 38.8775 -94.6378 168° South 343 395 14,200 2,182 Climbing Kansas City Center
Fri 07:28:50 AM 38.7825 -94.6128 168° South 360 414 16,200 2,311 Climbing Kansas City Center
Fri 07:29:51 AM 38.6678 -94.5833 169° South 374 430 18,900 2,182 Climbing Kansas City Center
Fri 07:30:51 AM 38.5672 -94.5581 169° South 382 440 20,600 1,736 Climbing Kansas City Center
Fri 07:31:52 AM 38.4631 -94.5339 170° South 396 456 22,400 1,918 Climbing Kansas City Center
Fri 07:32:53 AM 38.3414 -94.5017 168° South 399 459 24,500 1,820 Climbing Kansas City Center
Fri 07:33:54 AM 38.2667 -94.3939 131° Southeast 423 487 26,100 1,438 Climbing Kansas City Center
Fri 07:34:54 AM 38.1978 -94.2775 127° Southeast 427 491 27,400 1,339 Climbing Kansas City Center
Fri 07:35:55 AM 38.1117 -94.1406 129° Southeast 441 507 28,800 1,180 Climbing Kansas City Center
Fri 07:36:56 AM 38.0433 -94.0247 127° Southeast 453 521 29,800 1,033 Climbing Kansas City Center
Fri 07:37:57 AM 37.9644 -93.8950 128° Southeast 461 531 30,900 1,525 Climbing Kansas City Center
Fri 07:38:58 AM 37.8867 -93.7678 128° Southeast 458 527 32,900 1,488 Climbing Kansas City Center
Fri 07:39:58 AM 37.8111 -93.6422 127° Southeast 450 518 33,900 843 Climbing Kansas City Center
Fri 07:40:59 AM 37.7339 -93.5156 128° Southeast 453 521 34,600 541 Climbing Kansas City Center
Fri 07:42:00 AM 37.6558 -93.3872 128° Southeast 458 527 35,000 197 Climbing Kansas City Center
Fri 07:43:01 AM 37.5639 -93.2367 128° Southeast 455 524 35,000  Level Kansas City Center
Fri 07:44:02 AM 37.4867 -93.1122 128° Southeast 453 521 35,000  Level Kansas City Center
Fri 07:45:03 AM 37.4083 -92.9878 128° Southeast 453 521 35,000  Level Kansas City Center
Fri 07:46:03 AM 37.3308 -92.8633 128° Southeast 452 520 35,000  Level Kansas City Center
Fri 07:47:04 AM 37.2525 -92.7378 128° Southeast 455 524 35,000  Level Kansas City Center
Fri 07:48:05 AM 37.1736 -92.6111 128° Southeast 458 527 35,000 -443 Level Kansas City Center
Fri 07:49:06 AM 37.0953 -92.4867 128° Southeast 457 526 34,100 -984 Descending Kansas City Center
Fri 07:50:07 AM 37.0164 -92.3631 129° Southeast 455 524 33,000 -541 Descending Kansas City Center
Fri 07:51:08 AM 36.9381 -92.2389 128° Southeast 455 524 33,000  Level Kansas City Center
Fri 07:52:09 AM 36.8606 -92.1156 128° Southeast 453 521 33,000  Level Kansas City Center
Fri 07:53:10 AM 36.7817 -91.9936 129° Southeast 451 519 33,000 -393 Level Kansas City Center
Fri 07:54:11 AM 36.7025 -91.8686 128° Southeast 455 524 32,200 -1,086 Descending Kansas City Center
Fri 07:55:06 AM 36.6222 -91.7442 129° Southeast 459 528 30,900 -1,345 Descending Memphis Center
Fri 07:56:07 AM 36.5433 -91.6197 128° Southeast 457 526 29,600 -1,279 Descending Memphis Center
Fri 07:57:08 AM 36.4628 -91.4967 129° Southeast 455 524 28,300 -1,279 Descending Memphis Center
Fri 07:58:09 AM 36.3872 -91.3808 129° Southeast 442 509 27,000 -1,268 Descending Memphis Center
Fri 07:59:11 AM 36.3133 -91.2672 129° Southeast 430 495 25,700 -1,268 Descending Memphis Center
Fri 08:00:12 AM 36.2414 -91.1558 129° Southeast 422 486 24,400 -1,279 Descending Memphis Center
Fri 08:01:13 AM 36.1700 -91.0478 129° Southeast 412 474 23,100 -1,279 Descending Memphis Center
Fri 08:02:14 AM 36.0931 -90.9525 135° Southeast 400 460 21,800 -1,220 Descending Memphis Center
Fri 08:03:16 AM 35.9756 -90.9197 167° South 366 421 20,600 -1,317 Descending Memphis Center
Fri 08:04:17 AM 35.8767 -90.8933 168° South 362 417 19,100 -1,377 Descending Memphis Center
Fri 08:05:18 AM 35.7800 -90.8686 168° South 357 411 17,800 -1,426 Descending Memphis Center
Fri 08:06:19 AM 35.6886 -90.8444 168° South 352 405 16,200 -1,610 Descending Memphis Center
Fri 08:07:21 AM 35.5911 -90.8203 169° South 352 405 14,500 -1,854 Descending Memphis Center
Fri 08:08:22 AM 35.4956 -90.7953 168° South 346 398 12,400 -2,213 Descending Memphis Center
Fri 08:09:23 AM 35.4339 -90.7064 130° Southeast 359 413 10,000 -1,366 Descending Memphis Center
Fri 08:10:25 AM 35.4161 -90.6003 102° East 323 372 9,600 -878 Descending Memphis Center
Fri 08:11:26 AM 35.4144 -90.5019 91° East 293 337 8,200 -1,463 Descending Memphis Center
Fri 08:12:28 AM 35.4081 -90.3911 94° East 279 321 6,600 -1,073 Descending Memphis Center
Fri 08:13:29 AM 35.4053 -90.3006 92° East 269 310 6,000 -295 Descending Memphis Center
Fri 08:14:30 AM 35.3994 -90.2189 95° East 245 282 6,000  Level Memphis Center
Fri 08:15:32 AM 35.3800 -90.1447 108° East 231 266 6,000 -390 Level Memphis Center
Fri 08:16:33 AM 35.3586 -90.0728 110° East 224 258 5,200 -976 Descending Memphis Center
Fri 08:17:35 AM 35.3169 -90.0247 137° Southeast 207 238 4,000 -533 Descending Memphis Center
Fri 08:18:48 AM 35.2500 -89.9833 153° Southeast 196 226 4,000 -236 Level KMEM
Fri 08:19:42 AM 35.2000 -89.9833 180° South 187 215 3,500 -842 Descending KMEM
Fri 08:20:42 AM 35.1500 -89.9833 180° South 181 208 2,400 -952 Descending KMEM
Fri 08:21:48 AM 35.1167 -89.9833 180° South 145 167 1,500 -773 Descending KMEM
Fri 08:22:54 AM 35.0667 -89.9833 180° South 120 138 700 -727 Descending KMEM
Fri 08:25:00 AM 35.0424 -89.9767 171° South  Level Estimated

Login

Don't have an account? Register now (free) for customized features, flight alerts, and more!